TUP9630 UNKL-UIUU
Flight info
| Callsign | TUP9630 |
|---|---|
| Flight time | 1h 24m |
| Altitude | 35000 |
| Route | K0828F350 ATREG R497 BD W241 IKT A810 KUDAR A806 OSTUN OSTUN1N |
| Aircraft | B752/M-SDE2E3FGHIJ3J4J7RWXY/LB1 |
Departure
| Time | 2026-05-04 20:13 |
|---|---|
| Airport | Krasnoyarsk International Airport (UNKL) |
Arrival
| Time | 2026-05-04 21:38 |
|---|---|
| Airport | Baikal International Airport (UIUU) |
| Time | Latitude | Longitude | Altitude | Speed | Heading |
|---|---|---|---|---|---|
| 2026-05-04 19:53 | 56.18328 | 92.46971 | 944 ft | 0 kts | 22° |
| 2026-05-04 20:01 | 56.18312 | 92.46959 | 944 ft | 2 kts | 22° |
| 2026-05-04 20:01 | 56.18298 | 92.46948 | 944 ft | 2 kts | 21° |
| 2026-05-04 20:01 | 56.18287 | 92.46939 | 943 ft | 2 kts | 29° |
| 2026-05-04 20:01 | 56.18272 | 92.46912 | 944 ft | 2 kts | 66° |
| 2026-05-04 20:02 | 56.18269 | 92.46892 | 943 ft | 2 kts | 98° |
| 2026-05-04 20:02 | 56.18279 | 92.46869 | 943 ft | 0 kts | 120° |
| 2026-05-04 20:02 | 56.18282 | 92.46855 | 943 ft | 2 kts | 124° |
| 2026-05-04 20:02 | 56.18288 | 92.46836 | 943 ft | 2 kts | 124° |
| 2026-05-04 20:03 | 56.18293 | 92.46823 | 944 ft | 0 kts | 123° |
| 2026-05-04 20:09 | 56.18292 | 92.46824 | 943 ft | 0 kts | 126° |
| 2026-05-04 20:10 | 56.18290 | 92.46827 | 943 ft | 2 kts | 134° |
| 2026-05-04 20:10 | 56.18261 | 92.46841 | 943 ft | 5 kts | 188° |
| 2026-05-04 20:10 | 56.18217 | 92.46811 | 943 ft | 9 kts | 203° |
| 2026-05-04 20:10 | 56.18145 | 92.46755 | 943 ft | 11 kts | 203° |
| 2026-05-04 20:11 | 56.18068 | 92.46697 | 943 ft | 12 kts | 200° |
| 2026-05-04 20:11 | 56.17992 | 92.46642 | 943 ft | 11 kts | 202° |
| 2026-05-04 20:11 | 56.17934 | 92.46648 | 943 ft | 6 kts | 142° |
| 2026-05-04 20:11 | 56.17921 | 92.46683 | 943 ft | 0 kts | 111° |
| 2026-05-04 20:12 | 56.17919 | 92.46690 | 943 ft | 2 kts | 111° |
| 2026-05-04 20:12 | 56.17915 | 92.46712 | 943 ft | 3 kts | 112° |
| 2026-05-04 20:12 | 56.17885 | 92.46835 | 943 ft | 32 kts | 113° |
| 2026-05-04 20:13 | 56.17692 | 92.47636 | 944 ft | 107 kts | 113° |
| 2026-05-04 20:13 | 56.17312 | 92.49263 | 1028 ft | 166 kts | 112° |
| 2026-05-04 20:13 | 56.16843 | 92.51174 | 1800 ft | 169 kts | 117° |
| 2026-05-04 20:13 | 56.16286 | 92.53087 | 2280 ft | 185 kts | 118° |
| 2026-05-04 20:14 | 56.15745 | 92.55147 | 3065 ft | 185 kts | 111° |
| 2026-05-04 20:14 | 56.15266 | 92.57268 | 3845 ft | 187 kts | 109° |
| 2026-05-04 20:14 | 56.14796 | 92.59433 | 4542 ft | 193 kts | 110° |
| 2026-05-04 20:14 | 56.14273 | 92.61749 | 5055 ft | 211 kts | 110° |
| 2026-05-04 20:15 | 56.13694 | 92.64263 | 5631 ft | 227 kts | 110° |
| 2026-05-04 20:15 | 56.13059 | 92.66945 | 6197 ft | 244 kts | 115° |
| 2026-05-04 20:15 | 56.12038 | 92.69398 | 6886 ft | 256 kts | 128° |
| 2026-05-04 20:15 | 56.11050 | 92.72212 | 6988 ft | 266 kts | 117° |
| 2026-05-04 20:16 | 56.10146 | 92.75064 | 6983 ft | 262 kts | 118° |
| 2026-05-04 20:16 | 56.09218 | 92.77968 | 7053 ft | 285 kts | 118° |
| 2026-05-04 20:16 | 56.08208 | 92.81132 | 7814 ft | 297 kts | 118° |
| 2026-05-04 20:16 | 56.07187 | 92.84326 | 8725 ft | 302 kts | 117° |
| 2026-05-04 20:17 | 56.06139 | 92.87605 | 9664 ft | 306 kts | 117° |
| 2026-05-04 20:17 | 56.05077 | 92.90926 | 10562 ft | 311 kts | 116° |
| 2026-05-04 20:17 | 56.03982 | 92.94352 | 11011 ft | 332 kts | 116° |
| 2026-05-04 20:17 | 56.02795 | 92.98061 | 11435 ft | 352 kts | 116° |
| 2026-05-04 20:18 | 56.01547 | 93.01948 | 11877 ft | 369 kts | 116° |
| 2026-05-04 20:18 | 56.00263 | 93.05931 | 12710 ft | 374 kts | 116° |
| 2026-05-04 20:18 | 55.98970 | 93.09944 | 13388 ft | 382 kts | 116° |
| 2026-05-04 20:18 | 55.97647 | 93.14040 | 14143 ft | 387 kts | 116° |
| 2026-05-04 20:19 | 55.96289 | 93.18238 | 14969 ft | 390 kts | 116° |
| 2026-05-04 20:19 | 55.94937 | 93.22414 | 15672 ft | 397 kts | 115° |
| 2026-05-04 20:19 | 55.93561 | 93.26654 | 16456 ft | 400 kts | 115° |
| 2026-05-04 20:19 | 55.92152 | 93.30989 | 17159 ft | 405 kts | 115° |
| 2026-05-04 20:20 | 55.90744 | 93.35317 | 17868 ft | 410 kts | 115° |
| 2026-05-04 20:20 | 55.89316 | 93.39693 | 18578 ft | 414 kts | 115° |
| 2026-05-04 20:20 | 55.87859 | 93.44153 | 19216 ft | 419 kts | 114° |
| 2026-05-04 20:20 | 55.86384 | 93.48659 | 19811 ft | 425 kts | 114° |
| 2026-05-04 20:21 | 55.84906 | 93.53161 | 20512 ft | 427 kts | 114° |
| 2026-05-04 20:21 | 55.83406 | 93.57731 | 21074 ft | 433 kts | 114° |
| 2026-05-04 20:21 | 55.80333 | 93.67055 | 22213 ft | 444 kts | 115° |
| 2026-05-04 20:22 | 55.78766 | 93.71794 | 22790 ft | 448 kts | 115° |
| 2026-05-04 20:22 | 55.77187 | 93.76566 | 23327 ft | 453 kts | 115° |
| 2026-05-04 20:22 | 55.75588 | 93.81377 | 23852 ft | 458 kts | 115° |
| 2026-05-04 20:22 | 55.73970 | 93.86246 | 24350 ft | 463 kts | 115° |
| 2026-05-04 20:23 | 55.72329 | 93.91168 | 24950 ft | 464 kts | 115° |
| 2026-05-04 20:23 | 55.70663 | 93.96162 | 25399 ft | 469 kts | 115° |
| 2026-05-04 20:23 | 55.69019 | 94.01073 | 25894 ft | 473 kts | 115° |
| 2026-05-04 20:23 | 55.67323 | 94.06133 | 26424 ft | 475 kts | 115° |
| 2026-05-04 20:24 | 55.65637 | 94.11152 | 26881 ft | 478 kts | 115° |
| 2026-05-04 20:24 | 55.63930 | 94.16222 | 27370 ft | 481 kts | 115° |
| 2026-05-04 20:24 | 55.62234 | 94.21249 | 27798 ft | 484 kts | 115° |
| 2026-05-04 20:24 | 55.60492 | 94.26403 | 28212 ft | 487 kts | 115° |
| 2026-05-04 20:25 | 55.58765 | 94.31496 | 28690 ft | 489 kts | 115° |
| 2026-05-04 20:25 | 55.57022 | 94.36636 | 28960 ft | 495 kts | 115° |
| 2026-05-04 20:25 | 55.55246 | 94.41849 | 29468 ft | 493 kts | 115° |
| 2026-05-04 20:25 | 55.53471 | 94.47058 | 29659 ft | 500 kts | 115° |
| 2026-05-04 20:26 | 55.51687 | 94.52277 | 30097 ft | 499 kts | 115° |
| 2026-05-04 20:26 | 55.49898 | 94.57501 | 30377 ft | 503 kts | 115° |
| 2026-05-04 20:26 | 55.48075 | 94.62814 | 30680 ft | 506 kts | 115° |
| 2026-05-04 20:26 | 55.46270 | 94.68063 | 30904 ft | 510 kts | 116° |
| 2026-05-04 20:27 | 55.44414 | 94.73447 | 31205 ft | 510 kts | 117° |
| 2026-05-04 20:27 | 55.42579 | 94.78762 | 31450 ft | 511 kts | 117° |
| 2026-05-04 20:27 | 55.40735 | 94.84087 | 31774 ft | 510 kts | 117° |
| 2026-05-04 20:27 | 55.38917 | 94.89326 | 32087 ft | 508 kts | 117° |
| 2026-05-04 20:28 | 55.37082 | 94.94604 | 32424 ft | 506 kts | 117° |
| 2026-05-04 20:28 | 55.35251 | 94.99860 | 32698 ft | 506 kts | 118° |
| 2026-05-04 20:28 | 55.33404 | 95.05147 | 33018 ft | 505 kts | 118° |
| 2026-05-04 20:28 | 55.31577 | 95.10367 | 33344 ft | 503 kts | 118° |
| 2026-05-04 20:29 | 55.29753 | 95.15570 | 33658 ft | 502 kts | 118° |
| 2026-05-04 20:29 | 55.27937 | 95.20736 | 33956 ft | 503 kts | 119° |
| 2026-05-04 20:29 | 55.26071 | 95.26031 | 34332 ft | 502 kts | 119° |
| 2026-05-04 20:29 | 55.24250 | 95.31193 | 34635 ft | 502 kts | 119° |
| 2026-05-04 20:30 | 55.22412 | 95.36388 | 34997 ft | 501 kts | 119° |
| 2026-05-04 20:30 | 55.20574 | 95.41571 | 35130 ft | 498 kts | 119° |
| 2026-05-04 20:30 | 55.16911 | 95.51875 | 35138 ft | 499 kts | 119° |
| 2026-05-04 20:31 | 55.13235 | 95.62170 | 35139 ft | 499 kts | 119° |
| 2026-05-04 20:31 | 55.09569 | 95.72393 | 35140 ft | 498 kts | 120° |
| 2026-05-04 20:32 | 55.05895 | 95.82596 | 35130 ft | 498 kts | 120° |
| 2026-05-04 20:32 | 55.02193 | 95.92837 | 35118 ft | 499 kts | 120° |
| 2026-05-04 20:33 | 54.98500 | 96.03009 | 35120 ft | 499 kts | 120° |
| 2026-05-04 20:33 | 54.94788 | 96.13189 | 35121 ft | 499 kts | 121° |
| 2026-05-04 20:34 | 54.91090 | 96.23292 | 35126 ft | 498 kts | 121° |
| 2026-05-04 20:34 | 54.87380 | 96.33385 | 35114 ft | 498 kts | 121° |
| 2026-05-04 20:35 | 54.83638 | 96.43520 | 35099 ft | 499 kts | 121° |
| 2026-05-04 20:35 | 54.79917 | 96.53561 | 35094 ft | 498 kts | 121° |
| 2026-05-04 20:36 | 54.76187 | 96.63585 | 35085 ft | 499 kts | 121° |
| 2026-05-04 20:36 | 54.72735 | 96.73949 | 35067 ft | 496 kts | 116° |
| 2026-05-04 20:37 | 54.69491 | 96.84450 | 35067 ft | 497 kts | 116° |
| 2026-05-04 20:37 | 54.66223 | 96.94918 | 35068 ft | 497 kts | 116° |
| 2026-05-04 20:38 | 54.62960 | 97.05303 | 35065 ft | 497 kts | 117° |
| 2026-05-04 20:38 | 54.59670 | 97.15721 | 35069 ft | 497 kts | 117° |
| 2026-05-04 20:39 | 54.56359 | 97.26160 | 35069 ft | 497 kts | 117° |
| 2026-05-04 20:39 | 54.53056 | 97.36531 | 35080 ft | 498 kts | 117° |
| 2026-05-04 20:40 | 54.49710 | 97.46986 | 35095 ft | 497 kts | 117° |
| 2026-05-04 20:40 | 54.46397 | 97.57295 | 35090 ft | 497 kts | 117° |
| 2026-05-04 20:41 | 54.43060 | 97.67638 | 35081 ft | 498 kts | 118° |
| 2026-05-04 20:41 | 54.39690 | 97.78034 | 35067 ft | 498 kts | 118° |
| 2026-05-04 20:42 | 54.36342 | 97.88321 | 35052 ft | 498 kts | 118° |
| 2026-05-04 20:42 | 54.32954 | 97.98707 | 35039 ft | 497 kts | 118° |
| 2026-05-04 20:43 | 54.29596 | 98.08997 | 35035 ft | 497 kts | 118° |
| 2026-05-04 20:43 | 54.26234 | 98.19258 | 35032 ft | 497 kts | 118° |
| 2026-05-04 20:44 | 54.22842 | 98.29565 | 35032 ft | 498 kts | 118° |
| 2026-05-04 20:44 | 54.19450 | 98.39830 | 35031 ft | 497 kts | 118° |
| 2026-05-04 20:45 | 54.16048 | 98.50079 | 35044 ft | 498 kts | 118° |
| 2026-05-04 20:45 | 54.12638 | 98.60311 | 35055 ft | 497 kts | 118° |
| 2026-05-04 20:46 | 54.09230 | 98.70495 | 35063 ft | 500 kts | 119° |
| 2026-05-04 20:46 | 54.05777 | 98.80769 | 35048 ft | 499 kts | 119° |
| 2026-05-04 20:47 | 54.02322 | 98.91004 | 35029 ft | 499 kts | 119° |
| 2026-05-04 20:47 | 53.98875 | 99.01178 | 35006 ft | 498 kts | 119° |
| 2026-05-04 20:48 | 53.95414 | 99.11351 | 35021 ft | 497 kts | 119° |
| 2026-05-04 20:48 | 53.91963 | 99.21452 | 35043 ft | 498 kts | 119° |
| 2026-05-04 20:49 | 53.88480 | 99.31604 | 35041 ft | 498 kts | 119° |
| 2026-05-04 20:49 | 53.85020 | 99.41648 | 35036 ft | 497 kts | 119° |
| 2026-05-04 20:50 | 53.81517 | 99.51775 | 35043 ft | 498 kts | 119° |
| 2026-05-04 20:50 | 53.78034 | 99.61804 | 35030 ft | 498 kts | 119° |
| 2026-05-04 20:51 | 53.74535 | 99.71837 | 35017 ft | 497 kts | 120° |
| 2026-05-04 20:51 | 53.71033 | 99.81840 | 35016 ft | 498 kts | 120° |
| 2026-05-04 20:52 | 53.67504 | 99.91877 | 35017 ft | 499 kts | 120° |
| 2026-05-04 20:52 | 53.63976 | 100.01872 | 35019 ft | 498 kts | 120° |
| 2026-05-04 20:53 | 53.60424 | 100.11893 | 34995 ft | 497 kts | 120° |
| 2026-05-04 20:53 | 53.56891 | 100.21825 | 35011 ft | 498 kts | 120° |
| 2026-05-04 20:54 | 53.53321 | 100.31815 | 35015 ft | 499 kts | 120° |
| 2026-05-04 20:54 | 53.49758 | 100.41750 | 35025 ft | 499 kts | 120° |
| 2026-05-04 20:55 | 53.46188 | 100.51660 | 35035 ft | 499 kts | 120° |
| 2026-05-04 20:55 | 53.42582 | 100.61636 | 35042 ft | 500 kts | 121° |
| 2026-05-04 20:56 | 53.38985 | 100.71543 | 35032 ft | 500 kts | 121° |
| 2026-05-04 20:56 | 53.35374 | 100.81452 | 35030 ft | 500 kts | 121° |
| 2026-05-04 20:57 | 53.31765 | 100.91315 | 35039 ft | 500 kts | 121° |
| 2026-05-04 20:57 | 53.28140 | 101.01183 | 35047 ft | 501 kts | 122° |
| 2026-05-04 20:58 | 53.24494 | 101.11070 | 35039 ft | 501 kts | 122° |
| 2026-05-04 20:58 | 53.20833 | 101.20958 | 35039 ft | 500 kts | 122° |
| 2026-05-04 20:59 | 53.17185 | 101.30772 | 35033 ft | 501 kts | 122° |
| 2026-05-04 20:59 | 53.13519 | 101.40595 | 35044 ft | 501 kts | 122° |
| 2026-05-04 21:00 | 53.09854 | 101.50379 | 35049 ft | 502 kts | 122° |
| 2026-05-04 21:00 | 53.06157 | 101.60211 | 35040 ft | 502 kts | 122° |
| 2026-05-04 21:01 | 53.02450 | 101.70029 | 35058 ft | 502 kts | 123° |
| 2026-05-04 21:01 | 52.98747 | 101.79800 | 35062 ft | 501 kts | 123° |
| 2026-05-04 21:02 | 52.95054 | 101.89505 | 35054 ft | 502 kts | 123° |
| 2026-05-04 21:02 | 52.91333 | 101.99245 | 35054 ft | 502 kts | 123° |
| 2026-05-04 21:03 | 52.87583 | 102.09029 | 35059 ft | 502 kts | 123° |
| 2026-05-04 21:03 | 52.83842 | 102.18745 | 35072 ft | 504 kts | 123° |
| 2026-05-04 21:04 | 52.80093 | 102.28446 | 35075 ft | 503 kts | 123° |
| 2026-05-04 21:04 | 52.76371 | 102.38042 | 35079 ft | 504 kts | 123° |
| 2026-05-04 21:05 | 52.72588 | 102.47757 | 35076 ft | 504 kts | 123° |
| 2026-05-04 21:05 | 52.68792 | 102.57471 | 35076 ft | 504 kts | 123° |
| 2026-05-04 21:06 | 52.65022 | 102.67081 | 35068 ft | 505 kts | 124° |
| 2026-05-04 21:06 | 52.61188 | 102.76814 | 35067 ft | 505 kts | 124° |
| 2026-05-04 21:07 | 52.57380 | 102.86446 | 35053 ft | 506 kts | 124° |
| 2026-05-04 21:07 | 52.53536 | 102.96133 | 35038 ft | 505 kts | 124° |
| 2026-05-04 21:08 | 52.49717 | 103.05719 | 35039 ft | 504 kts | 124° |
| 2026-05-04 21:08 | 52.45919 | 103.15315 | 35038 ft | 505 kts | 121° |
| 2026-05-04 21:09 | 52.43288 | 103.25970 | 35065 ft | 507 kts | 103° |
| 2026-05-04 21:09 | 52.41674 | 103.37147 | 35053 ft | 508 kts | 102° |
| 2026-05-04 21:10 | 52.40045 | 103.48315 | 35053 ft | 507 kts | 102° |
| 2026-05-04 21:10 | 52.38397 | 103.59546 | 35047 ft | 507 kts | 102° |
| 2026-05-04 21:11 | 52.36737 | 103.70785 | 35036 ft | 507 kts | 103° |
| 2026-05-04 21:11 | 52.35078 | 103.81937 | 35031 ft | 506 kts | 103° |
| 2026-05-04 21:12 | 52.33405 | 103.93108 | 35035 ft | 506 kts | 103° |
| 2026-05-04 21:12 | 52.31732 | 104.04194 | 35036 ft | 505 kts | 103° |
| 2026-05-04 21:13 | 52.30041 | 104.15328 | 35034 ft | 507 kts | 103° |
| 2026-05-04 21:13 | 52.28339 | 104.26450 | 35033 ft | 508 kts | 103° |
| 2026-05-04 21:14 | 52.26624 | 104.37648 | 35031 ft | 507 kts | 101° |
| 2026-05-04 21:14 | 52.26044 | 104.49017 | 35042 ft | 505 kts | 85° |
| 2026-05-04 21:15 | 52.26344 | 104.60397 | 35023 ft | 505 kts | 85° |
| 2026-05-04 21:15 | 52.26646 | 104.71819 | 35012 ft | 505 kts | 85° |
| 2026-05-04 21:16 | 52.26943 | 104.83174 | 35000 ft | 499 kts | 85° |
| 2026-05-04 21:16 | 52.27085 | 104.88755 | 34749 ft | 490 kts | 85° |
| 2026-05-04 21:16 | 52.27226 | 104.94302 | 34101 ft | 487 kts | 85° |
| 2026-05-04 21:17 | 52.27364 | 104.99800 | 33479 ft | 483 kts | 85° |
| 2026-05-04 21:17 | 52.27496 | 105.05232 | 32983 ft | 481 kts | 85° |
| 2026-05-04 21:17 | 52.27628 | 105.10694 | 32499 ft | 481 kts | 85° |
| 2026-05-04 21:17 | 52.27757 | 105.16063 | 32055 ft | 481 kts | 85° |
| 2026-05-04 21:18 | 52.27885 | 105.21516 | 31596 ft | 482 kts | 85° |
| 2026-05-04 21:18 | 52.28011 | 105.26977 | 31111 ft | 481 kts | 85° |
| 2026-05-04 21:18 | 52.28133 | 105.32394 | 30473 ft | 478 kts | 85° |
| 2026-05-04 21:18 | 52.28248 | 105.37738 | 29805 ft | 475 kts | 86° |
| 2026-05-04 21:19 | 52.28358 | 105.43050 | 29152 ft | 469 kts | 85° |
| 2026-05-04 21:19 | 52.28463 | 105.48290 | 28428 ft | 463 kts | 85° |
| 2026-05-04 21:19 | 52.28567 | 105.53512 | 27695 ft | 456 kts | 85° |
| 2026-05-04 21:19 | 52.28667 | 105.58630 | 26980 ft | 449 kts | 85° |
| 2026-05-04 21:20 | 52.28763 | 105.63637 | 26280 ft | 443 kts | 85° |
| 2026-05-04 21:20 | 52.28856 | 105.68624 | 25576 ft | 438 kts | 86° |
| 2026-05-04 21:20 | 52.28946 | 105.73599 | 24866 ft | 435 kts | 85° |
| 2026-05-04 21:20 | 52.29034 | 105.78500 | 24176 ft | 433 kts | 86° |
| 2026-05-04 21:21 | 52.29117 | 105.83318 | 23497 ft | 428 kts | 85° |
| 2026-05-04 21:21 | 52.29199 | 105.88154 | 22818 ft | 422 kts | 85° |
| 2026-05-04 21:21 | 52.29277 | 105.92869 | 22159 ft | 417 kts | 85° |
| 2026-05-04 21:21 | 52.29353 | 105.97547 | 21518 ft | 412 kts | 85° |
| 2026-05-04 21:22 | 52.29425 | 106.02144 | 20913 ft | 406 kts | 85° |
| 2026-05-04 21:22 | 52.29495 | 106.06714 | 20344 ft | 402 kts | 85° |
| 2026-05-04 21:22 | 52.29564 | 106.11266 | 19797 ft | 400 kts | 85° |
| 2026-05-04 21:22 | 52.29630 | 106.15735 | 19266 ft | 396 kts | 85° |
| 2026-05-04 21:23 | 52.29693 | 106.20182 | 18755 ft | 393 kts | 85° |
| 2026-05-04 21:23 | 52.29755 | 106.24628 | 18256 ft | 389 kts | 85° |
| 2026-05-04 21:23 | 52.29814 | 106.29063 | 17768 ft | 386 kts | 85° |
| 2026-05-04 21:23 | 52.29870 | 106.33365 | 17298 ft | 382 kts | 85° |
| 2026-05-04 21:24 | 52.29925 | 106.37710 | 16836 ft | 379 kts | 85° |
| 2026-05-04 21:24 | 52.29976 | 106.41965 | 16384 ft | 375 kts | 86° |
| 2026-05-04 21:24 | 52.29702 | 106.46169 | 15944 ft | 377 kts | 102° |
| 2026-05-04 21:24 | 52.28738 | 106.50152 | 15498 ft | 379 kts | 119° |
| 2026-05-04 21:25 | 52.27227 | 106.53655 | 15003 ft | 377 kts | 127° |
| 2026-05-04 21:25 | 52.25602 | 106.57014 | 14495 ft | 372 kts | 127° |
| 2026-05-04 21:25 | 52.24014 | 106.60244 | 14015 ft | 367 kts | 128° |
| 2026-05-04 21:25 | 52.22403 | 106.63474 | 13545 ft | 365 kts | 128° |
| 2026-05-04 21:26 | 52.20801 | 106.66663 | 13082 ft | 361 kts | 129° |
| 2026-05-04 21:26 | 52.19226 | 106.69782 | 12636 ft | 357 kts | 129° |
| 2026-05-04 21:26 | 52.17667 | 106.72862 | 12203 ft | 355 kts | 129° |
| 2026-05-04 21:26 | 52.16090 | 106.75967 | 11774 ft | 352 kts | 129° |
| 2026-05-04 21:27 | 52.14555 | 106.78988 | 11343 ft | 348 kts | 129° |
| 2026-05-04 21:27 | 52.13021 | 106.82001 | 10928 ft | 345 kts | 129° |
| 2026-05-04 21:27 | 52.11491 | 106.85001 | 10510 ft | 343 kts | 129° |
| 2026-05-04 21:27 | 52.09998 | 106.87897 | 10397 ft | 329 kts | 130° |
| 2026-05-04 21:28 | 52.08538 | 106.90690 | 10306 ft | 315 kts | 130° |
| 2026-05-04 21:28 | 52.07146 | 106.93356 | 10209 ft | 301 kts | 130° |
| 2026-05-04 21:28 | 52.05824 | 106.95885 | 10113 ft | 288 kts | 130° |
| 2026-05-04 21:28 | 52.04456 | 106.98257 | 10054 ft | 294 kts | 144° |
| 2026-05-04 21:29 | 52.02610 | 106.99681 | 10085 ft | 294 kts | 172° |
| 2026-05-04 21:29 | 52.00587 | 106.99802 | 10069 ft | 289 kts | 188° |
| 2026-05-04 21:29 | 51.98598 | 106.99603 | 9947 ft | 283 kts | 188° |
| 2026-05-04 21:29 | 51.96649 | 106.99399 | 9569 ft | 282 kts | 188° |
| 2026-05-04 21:30 | 51.94678 | 106.99168 | 9132 ft | 287 kts | 188° |
| 2026-05-04 21:30 | 51.92685 | 106.98925 | 8688 ft | 286 kts | 188° |
| 2026-05-04 21:30 | 51.90721 | 106.98680 | 8250 ft | 283 kts | 188° |
| 2026-05-04 21:30 | 51.88775 | 106.98435 | 7808 ft | 280 kts | 188° |
| 2026-05-04 21:31 | 51.84962 | 106.98162 | 7221 ft | 270 kts | 173° |
| 2026-05-04 21:31 | 51.83184 | 106.98747 | 7207 ft | 253 kts | 171° |
| 2026-05-04 21:31 | 51.81461 | 106.99315 | 7222 ft | 258 kts | 170° |
| 2026-05-04 21:32 | 51.79659 | 106.99925 | 7222 ft | 267 kts | 169° |
| 2026-05-04 21:32 | 51.77922 | 107.00921 | 6997 ft | 269 kts | 145° |
| 2026-05-04 21:32 | 51.76666 | 107.03052 | 6789 ft | 261 kts | 114° |
| 2026-05-04 21:32 | 51.76237 | 107.05815 | 6586 ft | 250 kts | 82° |
| 2026-05-04 21:33 | 51.76463 | 107.08549 | 6443 ft | 246 kts | 75° |
| 2026-05-04 21:33 | 51.76750 | 107.11260 | 6172 ft | 243 kts | 75° |
| 2026-05-04 21:33 | 51.77060 | 107.13919 | 5926 ft | 240 kts | 74° |
| 2026-05-04 21:33 | 51.77374 | 107.16484 | 5584 ft | 230 kts | 74° |
| 2026-05-04 21:34 | 51.77684 | 107.18938 | 5109 ft | 221 kts | 74° |
| 2026-05-04 21:34 | 51.77985 | 107.21344 | 4584 ft | 217 kts | 75° |
| 2026-05-04 21:34 | 51.78281 | 107.23684 | 4078 ft | 213 kts | 73° |
| 2026-05-04 21:34 | 51.78586 | 107.25938 | 3797 ft | 197 kts | 74° |
| 2026-05-04 21:35 | 51.78859 | 107.28006 | 3538 ft | 179 kts | 74° |
| 2026-05-04 21:35 | 51.79106 | 107.29873 | 3264 ft | 163 kts | 73° |
| 2026-05-04 21:35 | 51.79301 | 107.31328 | 3037 ft | 151 kts | 74° |
| 2026-05-04 21:35 | 51.79493 | 107.32787 | 2817 ft | 137 kts | 74° |
| 2026-05-04 21:36 | 51.79690 | 107.34263 | 2627 ft | 139 kts | 74° |
| 2026-05-04 21:36 | 51.79899 | 107.35799 | 2520 ft | 140 kts | 73° |
| 2026-05-04 21:36 | 51.80100 | 107.37351 | 2334 ft | 142 kts | 75° |
| 2026-05-04 21:36 | 51.80303 | 107.38918 | 2088 ft | 143 kts | 74° |
| 2026-05-04 21:37 | 51.80511 | 107.40483 | 1882 ft | 141 kts | 75° |
| 2026-05-04 21:37 | 51.80715 | 107.42036 | 1709 ft | 140 kts | 74° |
| 2026-05-04 21:37 | 51.80911 | 107.43512 | 1698 ft | 121 kts | 77° |
| 2026-05-04 21:37 | 51.81050 | 107.44585 | 1698 ft | 75 kts | 77° |
| 2026-05-04 21:38 | 51.81101 | 107.45048 | 1698 ft | 15 kts | 85° |
| 2026-05-04 21:38 | 51.81110 | 107.45124 | 1698 ft | 3 kts | 23° |
| 2026-05-04 21:38 | 51.81122 | 107.45102 | 1698 ft | 4 kts | 252° |
| 2026-05-04 21:38 | 51.81106 | 107.45030 | 1698 ft | 9 kts | 257° |
| 2026-05-04 21:39 | 51.81093 | 107.44920 | 1698 ft | 10 kts | 259° |
| 2026-05-04 21:39 | 51.81078 | 107.44813 | 1698 ft | 9 kts | 257° |
| 2026-05-04 21:39 | 51.81065 | 107.44711 | 1698 ft | 9 kts | 258° |
| 2026-05-04 21:39 | 51.81052 | 107.44609 | 1697 ft | 9 kts | 258° |
| 2026-05-04 21:40 | 51.81039 | 107.44509 | 1697 ft | 9 kts | 257° |
| 2026-05-04 21:40 | 51.81026 | 107.44408 | 1697 ft | 9 kts | 257° |
| 2026-05-04 21:40 | 51.81012 | 107.44310 | 1697 ft | 8 kts | 256° |
| 2026-05-04 21:40 | 51.80976 | 107.44237 | 1697 ft | 7 kts | 198° |
| 2026-05-04 21:41 | 51.80909 | 107.44247 | 1697 ft | 14 kts | 168° |
| 2026-05-04 21:41 | 51.80842 | 107.44248 | 1697 ft | 6 kts | 220° |
| 2026-05-04 21:41 | 51.80818 | 107.44146 | 1697 ft | 11 kts | 258° |
| 2026-05-04 21:41 | 51.80803 | 107.44019 | 1697 ft | 11 kts | 259° |
| 2026-05-04 21:42 | 51.80789 | 107.43903 | 1697 ft | 4 kts | 241° |
| 2026-05-04 21:42 | 51.80749 | 107.43887 | 1697 ft | 10 kts | 174° |
| 2026-05-04 21:42 | 51.80695 | 107.43903 | 1697 ft | 7 kts | 168° |
| 2026-05-04 21:42 | 51.80644 | 107.43921 | 1697 ft | 7 kts | 168° |
| 2026-05-04 21:43 | 51.80597 | 107.43921 | 1697 ft | 6 kts | 211° |
| 2026-05-04 21:43 | 51.80553 | 107.43902 | 1697 ft | 6 kts | 175° |
| 2026-05-04 21:43 | 51.80534 | 107.43909 | 1697 ft | 0 kts | 166° |